sensor_id;sensor_type;location;lat;lon;timestamp;P1;durP1;ratioP1;P2;durP2;ratioP2
16973;SDS011;8603;46.944;7.412;2023-04-03T00:00:21;0.70;;;0.70;;
16973;SDS011;8603;46.944;7.412;2023-04-03T00:02:47;0.80;;;0.80;;
16973;SDS011;8603;46.944;7.412;2023-04-03T00:05:16;0.60;;;0.60;;
16973;SDS011;8603;46.944;7.412;2023-04-03T00:07:45;0.70;;;0.70;;
16973;SDS011;8603;46.944;7.412;2023-04-03T00:10:11;1.10;;;1.00;;
16973;SDS011;8603;46.944;7.412;2023-04-03T00:12:39;2.10;;;1.63;;
16973;SDS011;8603;46.944;7.412;2023-04-03T00:15:06;2.80;;;2.53;;
16973;SDS011;8603;46.944;7.412;2023-04-03T00:17:32;1.60;;;1.50;;
16973;SDS011;8603;46.944;7.412;2023-04-03T00:20:03;1.00;;;1.00;;
16973;SDS011;8603;46.944;7.412;2023-04-03T00:22:30;0.83;;;0.83;;
16973;SDS011;8603;46.944;7.412;2023-04-03T00:25:09;0.70;;;0.70;;
16973;SDS011;8603;46.944;7.412;2023-04-03T00:27:40;0.70;;;0.70;;
16973;SDS011;8603;46.944;7.412;2023-04-03T00:30:29;0.70;;;0.70;;
16973;SDS011;8603;46.944;7.412;2023-04-03T00:33:01;0.70;;;0.70;;
16973;SDS011;8603;46.944;7.412;2023-04-03T00:35:46;0.90;;;0.90;;
16973;SDS011;8603;46.944;7.412;2023-04-03T00:38:17;0.80;;;0.80;;
16973;SDS011;8603;46.944;7.412;2023-04-03T00:40:47;0.90;;;0.90;;
16973;SDS011;8603;46.944;7.412;2023-04-03T00:43:21;0.93;;;0.90;;
16973;SDS011;8603;46.944;7.412;2023-04-03T00:45:54;1.30;;;1.20;;
16973;SDS011;8603;46.944;7.412;2023-04-03T00:48:29;0.80;;;0.80;;
16973;SDS011;8603;46.944;7.412;2023-04-03T00:54:32;0.77;;;0.67;;
16973;SDS011;8603;46.944;7.412;2023-04-03T00:57:11;0.80;;;0.80;;
16973;SDS011;8603;46.944;7.412;2023-04-03T00:59:46;0.60;;;0.60;;
16973;SDS011;8603;46.944;7.412;2023-04-03T01:02:33;1.00;;;1.00;;
16973;SDS011;8603;46.944;7.412;2023-04-03T01:08:01;1.00;;;0.90;;
16973;SDS011;8603;46.944;7.412;2023-04-03T01:10:49;0.80;;;0.80;;
16973;SDS011;8603;46.944;7.412;2023-04-03T01:13:23;0.90;;;0.90;;
16973;SDS011;8603;46.944;7.412;2023-04-03T01:16:11;0.83;;;0.83;;
16973;SDS011;8603;46.944;7.412;2023-04-03T01:19:00;0.87;;;0.87;;
16973;SDS011;8603;46.944;7.412;2023-04-03T01:24:32;1.20;;;1.10;;
16973;SDS011;8603;46.944;7.412;2023-04-03T01:27:41;0.93;;;0.93;;
16973;SDS011;8603;46.944;7.412;2023-04-03T01:30:56;1.10;;;1.00;;
16973;SDS011;8603;46.944;7.412;2023-04-03T01:36:28;1.00;;;1.00;;
16973;SDS011;8603;46.944;7.412;2023-04-03T01:38:59;1.10;;;1.10;;
16973;SDS011;8603;46.944;7.412;2023-04-03T01:41:31;1.50;;;1.40;;
16973;SDS011;8603;46.944;7.412;2023-04-03T01:43:57;1.20;;;1.20;;
16973;SDS011;8603;46.944;7.412;2023-04-03T01:46:23;1.50;;;1.40;;
16973;SDS011;8603;46.944;7.412;2023-04-03T01:48:49;1.33;;;1.23;;
16973;SDS011;8603;46.944;7.412;2023-04-03T01:51:15;1.20;;;1.20;;
16973;SDS011;8603;46.944;7.412;2023-04-03T01:53:41;1.10;;;1.10;;
16973;SDS011;8603;46.944;7.412;2023-04-03T01:56:06;1.60;;;1.40;;
16973;SDS011;8603;46.944;7.412;2023-04-03T01:58:32;1.30;;;1.20;;
16973;SDS011;8603;46.944;7.412;2023-04-03T02:00:58;1.20;;;1.20;;
16973;SDS011;8603;46.944;7.412;2023-04-03T02:03:24;1.40;;;1.30;;
16973;SDS011;8603;46.944;7.412;2023-04-03T02:05:50;1.50;;;1.40;;
16973;SDS011;8603;46.944;7.412;2023-04-03T02:08:15;3.07;;;1.47;;
16973;SDS011;8603;46.944;7.412;2023-04-03T02:10:43;1.10;;;1.10;;
16973;SDS011;8603;46.944;7.412;2023-04-03T02:13:12;1.73;;;1.30;;
16973;SDS011;8603;46.944;7.412;2023-04-03T02:15:38;1.10;;;1.07;;
16973;SDS011;8603;46.944;7.412;2023-04-03T02:18:04;1.43;;;1.20;;
16973;SDS011;8603;46.944;7.412;2023-04-03T02:20:30;1.00;;;1.00;;
16973;SDS011;8603;46.944;7.412;2023-04-03T02:22:56;1.00;;;1.00;;
16973;SDS011;8603;46.944;7.412;2023-04-03T02:25:21;1.53;;;0.90;;
16973;SDS011;8603;46.944;7.412;2023-04-03T02:27:47;1.00;;;1.00;;
16973;SDS011;8603;46.944;7.412;2023-04-03T02:30:13;1.00;;;1.00;;
16973;SDS011;8603;46.944;7.412;2023-04-03T02:32:40;1.10;;;1.10;;
16973;SDS011;8603;46.944;7.412;2023-04-03T02:35:07;0.83;;;0.83;;
16973;SDS011;8603;46.944;7.412;2023-04-03T02:37:33;1.00;;;1.00;;
16973;SDS011;8603;46.944;7.412;2023-04-03T02:40:01;1.00;;;1.00;;
16973;SDS011;8603;46.944;7.412;2023-04-03T02:42:27;1.13;;;1.07;;
16973;SDS011;8603;46.944;7.412;2023-04-03T02:44:53;1.30;;;1.20;;
16973;SDS011;8603;46.944;7.412;2023-04-03T02:47:18;1.23;;;0.97;;
16973;SDS011;8603;46.944;7.412;2023-04-03T02:49:44;1.33;;;1.23;;
16973;SDS011;8603;46.944;7.412;2023-04-03T02:52:10;1.30;;;1.20;;
16973;SDS011;8603;46.944;7.412;2023-04-03T02:54:37;1.40;;;1.30;;
16973;SDS011;8603;46.944;7.412;2023-04-03T02:57:02;1.10;;;1.10;;
16973;SDS011;8603;46.944;7.412;2023-04-03T02:59:28;1.60;;;1.50;;
16973;SDS011;8603;46.944;7.412;2023-04-03T03:01:54;1.40;;;1.27;;
16973;SDS011;8603;46.944;7.412;2023-04-03T03:04:20;1.60;;;1.50;;
16973;SDS011;8603;46.944;7.412;2023-04-03T03:06:46;1.40;;;1.30;;
16973;SDS011;8603;46.944;7.412;2023-04-03T03:09:12;1.60;;;1.50;;
16973;SDS011;8603;46.944;7.412;2023-04-03T03:11:39;1.83;;;1.60;;
16973;SDS011;8603;46.944;7.412;2023-04-03T03:14:04;1.70;;;1.60;;
16973;SDS011;8603;46.944;7.412;2023-04-03T03:16:30;1.70;;;1.60;;
16973;SDS011;8603;46.944;7.412;2023-04-03T03:18:56;4.27;;;3.87;;
16973;SDS011;8603;46.944;7.412;2023-04-03T03:21:21;4.83;;;4.33;;
16973;SDS011;8603;46.944;7.412;2023-04-03T03:23:47;5.00;;;4.30;;
16973;SDS011;8603;46.944;7.412;2023-04-03T03:26:13;5.13;;;4.53;;
16973;SDS011;8603;46.944;7.412;2023-04-03T03:28:39;5.80;;;5.20;;
16973;SDS011;8603;46.944;7.412;2023-04-03T03:31:05;6.63;;;5.87;;
16973;SDS011;8603;46.944;7.412;2023-04-03T03:33:32;6.63;;;6.03;;
16973;SDS011;8603;46.944;7.412;2023-04-03T03:35:58;7.80;;;6.97;;
16973;SDS011;8603;46.944;7.412;2023-04-03T03:38:24;8.57;;;7.23;;
16973;SDS011;8603;46.944;7.412;2023-04-03T03:40:51;9.03;;;7.00;;
16973;SDS011;8603;46.944;7.412;2023-04-03T03:43:17;9.37;;;7.63;;
16973;SDS011;8603;46.944;7.412;2023-04-03T03:45:43;8.77;;;7.87;;
16973;SDS011;8603;46.944;7.412;2023-04-03T03:48:10;9.47;;;7.83;;
16973;SDS011;8603;46.944;7.412;2023-04-03T03:50:36;8.40;;;7.53;;
16973;SDS011;8603;46.944;7.412;2023-04-03T03:53:02;13.47;;;8.67;;
16973;SDS011;8603;46.944;7.412;2023-04-03T03:55:28;11.13;;;7.93;;
16973;SDS011;8603;46.944;7.412;2023-04-03T03:57:53;11.23;;;9.10;;
16973;SDS011;8603;46.944;7.412;2023-04-03T04:00:19;12.17;;;7.93;;
16973;SDS011;8603;46.944;7.412;2023-04-03T04:02:45;10.70;;;8.50;;
16973;SDS011;8603;46.944;7.412;2023-04-03T04:05:11;8.80;;;7.20;;
16973;SDS011;8603;46.944;7.412;2023-04-03T04:07:37;9.10;;;7.77;;
16973;SDS011;8603;46.944;7.412;2023-04-03T04:10:03;9.43;;;7.37;;
16973;SDS011;8603;46.944;7.412;2023-04-03T04:12:29;8.00;;;6.50;;
16973;SDS011;8603;46.944;7.412;2023-04-03T04:14:55;9.13;;;7.50;;
16973;SDS011;8603;46.944;7.412;2023-04-03T04:17:20;8.60;;;7.27;;
16973;SDS011;8603;46.944;7.412;2023-04-03T04:19:52;7.33;;;6.40;;
16973;SDS011;8603;46.944;7.412;2023-04-03T04:22:17;8.20;;;6.20;;
16973;SDS011;8603;46.944;7.412;2023-04-03T04:24:43;6.90;;;5.93;;
16973;SDS011;8603;46.944;7.412;2023-04-03T04:27:13;6.70;;;5.87;;
16973;SDS011;8603;46.944;7.412;2023-04-03T04:29:43;4.90;;;4.27;;
16973;SDS011;8603;46.944;7.412;2023-04-03T04:32:09;5.27;;;4.63;;
16973;SDS011;8603;46.944;7.412;2023-04-03T04:34:35;5.30;;;4.07;;
16973;SDS011;8603;46.944;7.412;2023-04-03T04:37:02;6.10;;;5.00;;
16973;SDS011;8603;46.944;7.412;2023-04-03T04:39:28;4.00;;;3.67;;
16973;SDS011;8603;46.944;7.412;2023-04-03T04:41:54;5.17;;;4.67;;
16973;SDS011;8603;46.944;7.412;2023-04-03T04:44:20;4.87;;;4.40;;
16973;SDS011;8603;46.944;7.412;2023-04-03T04:46:45;6.33;;;5.70;;
16973;SDS011;8603;46.944;7.412;2023-04-03T04:49:11;9.40;;;7.27;;
16973;SDS011;8603;46.944;7.412;2023-04-03T04:51:37;9.03;;;8.10;;
16973;SDS011;8603;46.944;7.412;2023-04-03T04:54:02;9.90;;;8.50;;
16973;SDS011;8603;46.944;7.412;2023-04-03T04:56:28;8.60;;;7.63;;
16973;SDS011;8603;46.944;7.412;2023-04-03T04:58:56;9.20;;;7.73;;
16973;SDS011;8603;46.944;7.412;2023-04-03T05:01:25;9.10;;;7.47;;
16973;SDS011;8603;46.944;7.412;2023-04-03T05:03:50;8.17;;;7.20;;
16973;SDS011;8603;46.944;7.412;2023-04-03T05:06:16;7.20;;;6.50;;
16973;SDS011;8603;46.944;7.412;2023-04-03T05:08:42;7.43;;;6.73;;
16973;SDS011;8603;46.944;7.412;2023-04-03T05:11:08;6.50;;;5.70;;
16973;SDS011;8603;46.944;7.412;2023-04-03T05:13:33;6.43;;;5.53;;
16973;SDS011;8603;46.944;7.412;2023-04-03T05:15:59;6.57;;;5.43;;
16973;SDS011;8603;46.944;7.412;2023-04-03T05:18:25;6.00;;;5.40;;
16973;SDS011;8603;46.944;7.412;2023-04-03T05:20:50;5.60;;;5.07;;
16973;SDS011;8603;46.944;7.412;2023-04-03T05:23:16;7.30;;;6.30;;
16973;SDS011;8603;46.944;7.412;2023-04-03T05:25:42;7.77;;;6.97;;
16973;SDS011;8603;46.944;7.412;2023-04-03T05:28:13;8.87;;;6.70;;
16973;SDS011;8603;46.944;7.412;2023-04-03T05:30:38;6.27;;;5.67;;
16973;SDS011;8603;46.944;7.412;2023-04-03T05:33:04;6.37;;;5.77;;
16973;SDS011;8603;46.944;7.412;2023-04-03T05:35:30;6.07;;;5.40;;
16973;SDS011;8603;46.944;7.412;2023-04-03T05:37:56;7.73;;;5.77;;
16973;SDS011;8603;46.944;7.412;2023-04-03T05:40:22;7.23;;;6.50;;
16973;SDS011;8603;46.944;7.412;2023-04-03T05:42:47;8.57;;;7.63;;
16973;SDS011;8603;46.944;7.412;2023-04-03T05:45:13;10.30;;;8.07;;
16973;SDS011;8603;46.944;7.412;2023-04-03T05:47:39;8.27;;;7.47;;
16973;SDS011;8603;46.944;7.412;2023-04-03T05:50:04;6.90;;;5.90;;
16973;SDS011;8603;46.944;7.412;2023-04-03T05:52:31;6.67;;;5.97;;
16973;SDS011;8603;46.944;7.412;2023-04-03T05:55:01;7.50;;;6.33;;
16973;SDS011;8603;46.944;7.412;2023-04-03T05:57:27;10.23;;;7.53;;
16973;SDS011;8603;46.944;7.412;2023-04-03T05:59:53;8.77;;;7.57;;
16973;SDS011;8603;46.944;7.412;2023-04-03T06:02:19;8.50;;;7.60;;
16973;SDS011;8603;46.944;7.412;2023-04-03T06:04:46;8.57;;;7.23;;
16973;SDS011;8603;46.944;7.412;2023-04-03T06:07:22;8.63;;;7.20;;
16973;SDS011;8603;46.944;7.412;2023-04-03T06:09:52;9.33;;;7.77;;
16973;SDS011;8603;46.944;7.412;2023-04-03T06:12:19;8.93;;;8.03;;
16973;SDS011;8603;46.944;7.412;2023-04-03T06:14:45;8.27;;;7.40;;
16973;SDS011;8603;46.944;7.412;2023-04-03T06:17:10;9.23;;;7.87;;
16973;SDS011;8603;46.944;7.412;2023-04-03T06:19:37;9.97;;;8.03;;
16973;SDS011;8603;46.944;7.412;2023-04-03T06:22:03;11.33;;;7.60;;
16973;SDS011;8603;46.944;7.412;2023-04-03T06:24:28;7.13;;;6.43;;
16973;SDS011;8603;46.944;7.412;2023-04-03T06:26:55;6.40;;;5.80;;
16973;SDS011;8603;46.944;7.412;2023-04-03T06:29:21;6.40;;;5.67;;
16973;SDS011;8603;46.944;7.412;2023-04-03T06:31:47;5.60;;;5.10;;
16973;SDS011;8603;46.944;7.412;2023-04-03T06:34:13;6.37;;;5.00;;
16973;SDS011;8603;46.944;7.412;2023-04-03T06:36:40;6.13;;;5.53;;
16973;SDS011;8603;46.944;7.412;2023-04-03T06:39:07;6.13;;;4.80;;
16973;SDS011;8603;46.944;7.412;2023-04-03T06:41:34;5.00;;;4.40;;
16973;SDS011;8603;46.944;7.412;2023-04-03T06:44:00;5.00;;;4.53;;
16973;SDS011;8603;46.944;7.412;2023-04-03T06:46:26;4.90;;;4.40;;
16973;SDS011;8603;46.944;7.412;2023-04-03T06:48:52;4.40;;;4.00;;
16973;SDS011;8603;46.944;7.412;2023-04-03T06:51:25;4.43;;;4.03;;
16973;SDS011;8603;46.944;7.412;2023-04-03T06:53:53;4.77;;;4.27;;
16973;SDS011;8603;46.944;7.412;2023-04-03T06:56:22;4.90;;;4.50;;
16973;SDS011;8603;46.944;7.412;2023-04-03T06:58:50;4.87;;;4.37;;
16973;SDS011;8603;46.944;7.412;2023-04-03T07:01:19;5.20;;;4.70;;
16973;SDS011;8603;46.944;7.412;2023-04-03T07:03:45;4.67;;;4.20;;
16973;SDS011;8603;46.944;7.412;2023-04-03T07:06:14;5.10;;;4.60;;
16973;SDS011;8603;46.944;7.412;2023-04-03T07:08:44;4.80;;;4.30;;
16973;SDS011;8603;46.944;7.412;2023-04-03T07:11:13;4.70;;;4.30;;
16973;SDS011;8603;46.944;7.412;2023-04-03T07:13:38;4.90;;;4.40;;
16973;SDS011;8603;46.944;7.412;2023-04-03T07:16:05;5.10;;;4.53;;
16973;SDS011;8603;46.944;7.412;2023-04-03T07:18:31;4.90;;;4.40;;
16973;SDS011;8603;46.944;7.412;2023-04-03T07:21:00;5.40;;;4.60;;
16973;SDS011;8603;46.944;7.412;2023-04-03T07:23:26;5.07;;;4.57;;
16973;SDS011;8603;46.944;7.412;2023-04-03T07:25:55;5.20;;;4.70;;
16973;SDS011;8603;46.944;7.412;2023-04-03T07:28:23;5.80;;;4.97;;
16973;SDS011;8603;46.944;7.412;2023-04-03T07:30:50;5.23;;;4.73;;
16973;SDS011;8603;46.944;7.412;2023-04-03T07:33:18;5.17;;;4.67;;
16973;SDS011;8603;46.944;7.412;2023-04-03T07:35:45;6.30;;;4.60;;
16973;SDS011;8603;46.944;7.412;2023-04-03T07:38:11;5.60;;;5.00;;
16973;SDS011;8603;46.944;7.412;2023-04-03T07:40:37;5.70;;;4.77;;
16973;SDS011;8603;46.944;7.412;2023-04-03T07:43:03;5.97;;;5.27;;
16973;SDS011;8603;46.944;7.412;2023-04-03T07:45:30;4.77;;;4.33;;
16973;SDS011;8603;46.944;7.412;2023-04-03T07:47:56;5.87;;;4.90;;
16973;SDS011;8603;46.944;7.412;2023-04-03T07:50:21;5.83;;;4.93;;
16973;SDS011;8603;46.944;7.412;2023-04-03T07:52:47;5.57;;;5.07;;
16973;SDS011;8603;46.944;7.412;2023-04-03T07:55:26;5.60;;;5.10;;
16973;SDS011;8603;46.944;7.412;2023-04-03T07:57:52;5.80;;;4.60;;
16973;SDS011;8603;46.944;7.412;2023-04-03T08:00:29;6.20;;;5.10;;
16973;SDS011;8603;46.944;7.412;2023-04-03T08:02:55;5.53;;;5.03;;
16973;SDS011;8603;46.944;7.412;2023-04-03T08:05:24;5.30;;;4.80;;
16973;SDS011;8603;46.944;7.412;2023-04-03T08:07:50;7.60;;;4.87;;
16973;SDS011;8603;46.944;7.412;2023-04-03T08:10:16;4.90;;;4.43;;
16973;SDS011;8603;46.944;7.412;2023-04-03T08:12:42;4.47;;;4.07;;
16973;SDS011;8603;46.944;7.412;2023-04-03T08:15:16;4.80;;;3.97;;
16973;SDS011;8603;46.944;7.412;2023-04-03T08:17:53;4.50;;;4.10;;
16973;SDS011;8603;46.944;7.412;2023-04-03T08:20:22;4.37;;;3.43;;
16973;SDS011;8603;46.944;7.412;2023-04-03T08:22:48;4.53;;;4.03;;
16973;SDS011;8603;46.944;7.412;2023-04-03T08:25:14;4.40;;;4.00;;
16973;SDS011;8603;46.944;7.412;2023-04-03T08:27:40;4.30;;;3.90;;
16973;SDS011;8603;46.944;7.412;2023-04-03T08:30:09;4.97;;;3.90;;
16973;SDS011;8603;46.944;7.412;2023-04-03T08:32:35;4.43;;;4.03;;
16973;SDS011;8603;46.944;7.412;2023-04-03T08:35:07;4.60;;;4.20;;
16973;SDS011;8603;46.944;7.412;2023-04-03T08:37:39;4.07;;;3.67;;
16973;SDS011;8603;46.944;7.412;2023-04-03T08:40:10;4.00;;;3.50;;
16973;SDS011;8603;46.944;7.412;2023-04-03T08:42:48;5.20;;;3.63;;
16973;SDS011;8603;46.944;7.412;2023-04-03T08:48:19;4.10;;;3.73;;
16973;SDS011;8603;46.944;7.412;2023-04-03T08:50:59;3.83;;;3.50;;
16973;SDS011;8603;46.944;7.412;2023-04-03T08:53:31;3.83;;;3.50;;
16973;SDS011;8603;46.944;7.412;2023-04-03T08:56:00;5.97;;;3.00;;
16973;SDS011;8603;46.944;7.412;2023-04-03T08:58:34;3.93;;;2.90;;
16973;SDS011;8603;46.944;7.412;2023-04-03T09:03:52;2.90;;;2.60;;
16973;SDS011;8603;46.944;7.412;2023-04-03T09:06:32;3.27;;;2.80;;
16973;SDS011;8603;46.944;7.412;2023-04-03T09:14:28;3.40;;;3.10;;
16973;SDS011;8603;46.944;7.412;2023-04-03T09:17:01;3.63;;;2.80;;
16973;SDS011;8603;46.944;7.412;2023-04-03T09:22:16;3.20;;;2.90;;
16973;SDS011;8603;46.944;7.412;2023-04-03T09:24:54;4.50;;;2.73;;
16973;SDS011;8603;46.944;7.412;2023-04-03T09:27:24;3.20;;;2.90;;
16973;SDS011;8603;46.944;7.412;2023-04-03T09:29:54;3.27;;;2.97;;
16973;SDS011;8603;46.944;7.412;2023-04-03T09:32:29;3.53;;;3.10;;
16973;SDS011;8603;46.944;7.412;2023-04-03T09:35:03;3.03;;;2.77;;
16973;SDS011;8603;46.944;7.412;2023-04-03T09:37:44;3.00;;;2.70;;
16973;SDS011;8603;46.944;7.412;2023-04-03T09:42:59;3.10;;;2.80;;
16973;SDS011;8603;46.944;7.412;2023-04-03T09:45:40;3.07;;;2.70;;
16973;SDS011;8603;46.944;7.412;2023-04-03T09:48:08;3.00;;;2.73;;
16973;SDS011;8603;46.944;7.412;2023-04-03T09:53:30;3.47;;;2.83;;
16973;SDS011;8603;46.944;7.412;2023-04-03T09:56:19;3.27;;;2.80;;
16973;SDS011;8603;46.944;7.412;2023-04-03T09:58:48;3.00;;;2.70;;
16973;SDS011;8603;46.944;7.412;2023-04-03T10:01:23;2.60;;;2.40;;
16973;SDS011;8603;46.944;7.412;2023-04-03T10:07:02;2.70;;;2.30;;
16973;SDS011;8603;46.944;7.412;2023-04-03T10:09:29;2.47;;;2.27;;
16973;SDS011;8603;46.944;7.412;2023-04-03T10:15:00;2.30;;;2.10;;
16973;SDS011;8603;46.944;7.412;2023-04-03T10:34:24;2.67;;;2.40;;
16973;SDS011;8603;46.944;7.412;2023-04-03T10:42:50;2.90;;;2.60;;
16973;SDS011;8603;46.944;7.412;2023-04-03T10:48:49;2.80;;;2.60;;
16973;SDS011;8603;46.944;7.412;2023-04-03T10:51:37;2.40;;;2.20;;
16973;SDS011;8603;46.944;7.412;2023-04-03T10:54:33;3.27;;;2.90;;
16973;SDS011;8603;46.944;7.412;2023-04-03T10:57:08;2.60;;;2.13;;
16973;SDS011;8603;46.944;7.412;2023-04-03T11:02:21;3.00;;;2.70;;
16973;SDS011;8603;46.944;7.412;2023-04-03T11:04:56;3.13;;;2.80;;
16973;SDS011;8603;46.944;7.412;2023-04-03T11:07:28;4.83;;;2.67;;
16973;SDS011;8603;46.944;7.412;2023-04-03T11:10:22;3.30;;;3.00;;
16973;SDS011;8603;46.944;7.412;2023-04-03T11:12:56;3.27;;;3.00;;
16973;SDS011;8603;46.944;7.412;2023-04-03T11:15:31;3.43;;;2.67;;
16973;SDS011;8603;46.944;7.412;2023-04-03T11:18:02;3.17;;;2.87;;
16973;SDS011;8603;46.944;7.412;2023-04-03T11:20:39;3.37;;;3.00;;
16973;SDS011;8603;46.944;7.412;2023-04-03T11:23:13;3.27;;;2.97;;
16973;SDS011;8603;46.944;7.412;2023-04-03T11:25:40;3.73;;;3.37;;
16973;SDS011;8603;46.944;7.412;2023-04-03T11:28:14;3.63;;;3.10;;
16973;SDS011;8603;46.944;7.412;2023-04-03T11:30:47;3.37;;;3.07;;
16973;SDS011;8603;46.944;7.412;2023-04-03T11:36:23;3.27;;;2.97;;
16973;SDS011;8603;46.944;7.412;2023-04-03T11:38:56;3.90;;;3.20;;
16973;SDS011;8603;46.944;7.412;2023-04-03T11:41:33;3.73;;;3.33;;
16973;SDS011;8603;46.944;7.412;2023-04-03T11:46:59;3.40;;;3.10;;
16973;SDS011;8603;46.944;7.412;2023-04-03T11:58:02;4.53;;;3.43;;
16973;SDS011;8603;46.944;7.412;2023-04-03T12:08:30;3.70;;;2.90;;
16973;SDS011;8603;46.944;7.412;2023-04-03T12:13:39;3.53;;;2.80;;
16973;SDS011;8603;46.944;7.412;2023-04-03T12:19:27;3.97;;;3.27;;
16973;SDS011;8603;46.944;7.412;2023-04-03T12:22:13;3.20;;;2.70;;
16973;SDS011;8603;46.944;7.412;2023-04-03T12:24:51;5.87;;;2.90;;
16973;SDS011;8603;46.944;7.412;2023-04-03T12:27:22;3.37;;;2.83;;
16973;SDS011;8603;46.944;7.412;2023-04-03T12:30:07;3.40;;;2.80;;
16973;SDS011;8603;46.944;7.412;2023-04-03T12:35:19;3.27;;;2.97;;
16973;SDS011;8603;46.944;7.412;2023-04-03T12:38:14;3.83;;;3.10;;
16973;SDS011;8603;46.944;7.412;2023-04-03T12:46:26;5.00;;;2.70;;
16973;SDS011;8603;46.944;7.412;2023-04-03T12:49:00;3.17;;;2.50;;
16973;SDS011;8603;46.944;7.412;2023-04-03T12:51:39;3.30;;;3.00;;
16973;SDS011;8603;46.944;7.412;2023-04-03T12:54:17;5.57;;;2.47;;
16973;SDS011;8603;46.944;7.412;2023-04-03T12:56:47;4.50;;;2.57;;
16973;SDS011;8603;46.944;7.412;2023-04-03T12:59:20;3.80;;;2.70;;
16973;SDS011;8603;46.944;7.412;2023-04-03T13:01:58;4.47;;;2.70;;
16973;SDS011;8603;46.944;7.412;2023-04-03T13:04:26;3.23;;;2.60;;
16973;SDS011;8603;46.944;7.412;2023-04-03T13:06:53;3.30;;;2.97;;
16973;SDS011;8603;46.944;7.412;2023-04-03T13:09:26;2.60;;;2.40;;
16973;SDS011;8603;46.944;7.412;2023-04-03T13:12:03;3.17;;;2.47;;
16973;SDS011;8603;46.944;7.412;2023-04-03T13:14:38;4.67;;;2.70;;
16973;SDS011;8603;46.944;7.412;2023-04-03T13:17:18;2.80;;;2.40;;
16973;SDS011;8603;46.944;7.412;2023-04-03T13:19:44;4.33;;;2.50;;
16973;SDS011;8603;46.944;7.412;2023-04-03T13:24:54;2.53;;;2.33;;
16973;SDS011;8603;46.944;7.412;2023-04-03T13:27:22;2.77;;;2.33;;
16973;SDS011;8603;46.944;7.412;2023-04-03T13:29:54;2.70;;;2.30;;
16973;SDS011;8603;46.944;7.412;2023-04-03T13:32:24;2.43;;;2.23;;
16973;SDS011;8603;46.944;7.412;2023-04-03T13:34:52;3.20;;;2.50;;
16973;SDS011;8603;46.944;7.412;2023-04-03T13:37:25;2.87;;;2.40;;
16973;SDS011;8603;46.944;7.412;2023-04-03T13:40:08;2.63;;;2.30;;
16973;SDS011;8603;46.944;7.412;2023-04-03T13:42:38;2.80;;;2.60;;
16973;SDS011;8603;46.944;7.412;2023-04-03T13:45:17;2.77;;;2.57;;
16973;SDS011;8603;46.944;7.412;2023-04-03T13:47:46;2.40;;;2.10;;
16973;SDS011;8603;46.944;7.412;2023-04-03T13:50:21;2.67;;;2.47;;
16973;SDS011;8603;46.944;7.412;2023-04-03T13:55:35;2.60;;;2.40;;
16973;SDS011;8603;46.944;7.412;2023-04-03T14:05:53;3.53;;;2.37;;
16973;SDS011;8603;46.944;7.412;2023-04-03T14:08:20;2.40;;;2.20;;
16973;SDS011;8603;46.944;7.412;2023-04-03T14:10:46;2.93;;;2.57;;
16973;SDS011;8603;46.944;7.412;2023-04-03T14:13:15;2.37;;;2.17;;
16973;SDS011;8603;46.944;7.412;2023-04-03T14:15:43;2.83;;;2.17;;
16973;SDS011;8603;46.944;7.412;2023-04-03T14:18:11;2.10;;;1.90;;
16973;SDS011;8603;46.944;7.412;2023-04-03T14:20:38;2.40;;;2.20;;
16973;SDS011;8603;46.944;7.412;2023-04-03T14:23:04;3.53;;;2.50;;
16973;SDS011;8603;46.944;7.412;2023-04-03T14:25:31;2.50;;;2.30;;
16973;SDS011;8603;46.944;7.412;2023-04-03T14:27:57;2.50;;;2.30;;
16973;SDS011;8603;46.944;7.412;2023-04-03T14:30:32;2.60;;;2.40;;
16973;SDS011;8603;46.944;7.412;2023-04-03T14:32:58;2.57;;;2.10;;
16973;SDS011;8603;46.944;7.412;2023-04-03T14:35:25;8.73;;;5.40;;
16973;SDS011;8603;46.944;7.412;2023-04-03T14:37:54;3.07;;;2.70;;
16973;SDS011;8603;46.944;7.412;2023-04-03T14:40:22;2.20;;;2.00;;
16973;SDS011;8603;46.944;7.412;2023-04-03T14:42:51;3.20;;;2.53;;
16973;SDS011;8603;46.944;7.412;2023-04-03T14:45:19;6.57;;;4.60;;
16973;SDS011;8603;46.944;7.412;2023-04-03T14:47:47;3.50;;;2.40;;
16973;SDS011;8603;46.944;7.412;2023-04-03T14:50:16;2.83;;;2.53;;
16973;SDS011;8603;46.944;7.412;2023-04-03T14:52:43;3.63;;;2.73;;
16973;SDS011;8603;46.944;7.412;2023-04-03T14:55:11;4.83;;;3.90;;
16973;SDS011;8603;46.944;7.412;2023-04-03T14:57:39;3.17;;;2.87;;
16973;SDS011;8603;46.944;7.412;2023-04-03T15:00:07;2.27;;;2.07;;
16973;SDS011;8603;46.944;7.412;2023-04-03T15:02:37;3.73;;;2.57;;
16973;SDS011;8603;46.944;7.412;2023-04-03T15:05:04;2.30;;;2.10;;
16973;SDS011;8603;46.944;7.412;2023-04-03T15:07:33;4.80;;;2.63;;
16973;SDS011;8603;46.944;7.412;2023-04-03T15:10:14;4.17;;;3.37;;
16973;SDS011;8603;46.944;7.412;2023-04-03T15:12:40;2.17;;;1.97;;
16973;SDS011;8603;46.944;7.412;2023-04-03T15:15:06;2.37;;;2.17;;
16973;SDS011;8603;46.944;7.412;2023-04-03T15:17:32;3.63;;;2.90;;
16973;SDS011;8603;46.944;7.412;2023-04-03T15:20:00;4.27;;;3.33;;
16973;SDS011;8603;46.944;7.412;2023-04-03T15:22:26;3.97;;;2.50;;
16973;SDS011;8603;46.944;7.412;2023-04-03T15:24:52;3.27;;;2.63;;
16973;SDS011;8603;46.944;7.412;2023-04-03T15:27:18;2.70;;;2.50;;
16973;SDS011;8603;46.944;7.412;2023-04-03T15:29:44;2.53;;;2.33;;
16973;SDS011;8603;46.944;7.412;2023-04-03T15:32:10;4.03;;;2.53;;
16973;SDS011;8603;46.944;7.412;2023-04-03T15:34:37;2.47;;;2.27;;
16973;SDS011;8603;46.944;7.412;2023-04-03T15:37:02;2.60;;;2.40;;
16973;SDS011;8603;46.944;7.412;2023-04-03T15:39:28;3.50;;;3.20;;
16973;SDS011;8603;46.944;7.412;2023-04-03T15:41:54;2.83;;;2.40;;
16973;SDS011;8603;46.944;7.412;2023-04-03T15:44:20;3.90;;;2.80;;
16973;SDS011;8603;46.944;7.412;2023-04-03T15:46:46;4.27;;;3.03;;
16973;SDS011;8603;46.944;7.412;2023-04-03T15:49:16;4.37;;;3.70;;
16973;SDS011;8603;46.944;7.412;2023-04-03T15:51:43;7.00;;;4.83;;
16973;SDS011;8603;46.944;7.412;2023-04-03T15:54:08;3.97;;;2.93;;
16973;SDS011;8603;46.944;7.412;2023-04-03T15:56:34;4.83;;;3.20;;
16973;SDS011;8603;46.944;7.412;2023-04-03T15:59:00;3.50;;;2.70;;
16973;SDS011;8603;46.944;7.412;2023-04-03T16:01:25;2.93;;;2.63;;
16973;SDS011;8603;46.944;7.412;2023-04-03T16:03:51;3.17;;;2.63;;
16973;SDS011;8603;46.944;7.412;2023-04-03T16:06:17;2.70;;;2.37;;
16973;SDS011;8603;46.944;7.412;2023-04-03T16:08:44;3.20;;;2.30;;
16973;SDS011;8603;46.944;7.412;2023-04-03T16:11:10;2.97;;;2.67;;
16973;SDS011;8603;46.944;7.412;2023-04-03T16:13:36;3.00;;;2.70;;
16973;SDS011;8603;46.944;7.412;2023-04-03T16:16:02;2.47;;;2.27;;
16973;SDS011;8603;46.944;7.412;2023-04-03T16:18:29;3.93;;;3.20;;
16973;SDS011;8603;46.944;7.412;2023-04-03T16:20:55;19.53;;;9.80;;
16973;SDS011;8603;46.944;7.412;2023-04-03T16:23:20;4.93;;;3.27;;
16973;SDS011;8603;46.944;7.412;2023-04-03T16:25:47;3.30;;;2.97;;
16973;SDS011;8603;46.944;7.412;2023-04-03T16:28:13;3.40;;;3.10;;
16973;SDS011;8603;46.944;7.412;2023-04-03T16:30:42;4.17;;;2.30;;
16973;SDS011;8603;46.944;7.412;2023-04-03T16:33:12;3.00;;;2.70;;
16973;SDS011;8603;46.944;7.412;2023-04-03T16:35:38;3.50;;;3.20;;
16973;SDS011;8603;46.944;7.412;2023-04-03T16:38:06;3.40;;;2.90;;
16973;SDS011;8603;46.944;7.412;2023-04-03T16:40:32;4.43;;;2.70;;
16973;SDS011;8603;46.944;7.412;2023-04-03T16:43:00;15.07;;;7.47;;
16973;SDS011;8603;46.944;7.412;2023-04-03T16:45:26;3.73;;;3.33;;
16973;SDS011;8603;46.944;7.412;2023-04-03T16:47:52;3.43;;;2.53;;
16973;SDS011;8603;46.944;7.412;2023-04-03T16:50:17;2.63;;;2.43;;
16973;SDS011;8603;46.944;7.412;2023-04-03T16:52:45;2.63;;;2.40;;
16973;SDS011;8603;46.944;7.412;2023-04-03T16:55:11;4.60;;;3.10;;
16973;SDS011;8603;46.944;7.412;2023-04-03T16:57:37;7.50;;;4.87;;
16973;SDS011;8603;46.944;7.412;2023-04-03T17:00:03;5.10;;;4.17;;
16973;SDS011;8603;46.944;7.412;2023-04-03T17:02:29;4.30;;;3.80;;
16973;SDS011;8603;46.944;7.412;2023-04-03T17:04:55;6.10;;;2.90;;
16973;SDS011;8603;46.944;7.412;2023-04-03T17:07:21;3.03;;;2.67;;
16973;SDS011;8603;46.944;7.412;2023-04-03T17:09:48;2.90;;;2.60;;